Time;durP1;ratioP1;P1;durP2;ratioP2;P2;SDS_P1;SDS_P2;PMS_P1;PMS_P2;Temp;Humidity;BMP_temperature;BMP_pressure;BME280_temperature;BME280_humidity;BME280_pressure;Samples;Min_cycle;Max_cycle;Signal;HPM_P1;HPM_P2
2022/09/07 00:01:26;;;;;;;23.73;6.57;;;;;;;40.17;34.94;101201.81;6157886;23;20412;-76
2022/09/07 00:03:56;;;;;;;16.70;6.70;;;;;;;40.26;34.25;101195.28;6158997;23;20384;-76
2022/09/07 00:06:23;;;;;;;14.60;7.50;;;;;;;40.40;34.00;101200.63;6157953;23;20435;-76
2022/09/07 00:08:49;;;;;;;15.27;7.00;;;;;;;40.35;34.16;101191.81;6158743;23;20912;-76
2022/09/07 00:11:18;;;;;;;23.50;8.50;;;;;;;40.28;34.45;101190.34;6158809;23;20398;-77
2022/09/07 00:13:46;;;;;;;13.70;6.67;;;;;;;40.21;34.30;101189.22;6185061;23;20482;-75
2022/09/07 00:16:22;;;;;;;14.00;6.70;;;;;;;40.33;34.43;101188.59;6158430;23;20381;-75
2022/09/07 00:18:48;;;;;;;13.53;7.33;;;;;;;39.99;34.60;101177.25;6158682;23;20885;-77
2022/09/07 00:21:16;;;;;;;10.90;5.73;;;;;;;40.18;34.72;101168.91;6185118;23;20801;-76
2022/09/07 00:23:43;;;;;;;16.47;6.47;;;;;;;40.20;34.61;101169.38;6158636;23;20388;-76
2022/09/07 00:26:19;;;;;;;13.37;8.20;;;;;;;40.23;34.82;101154.38;6158673;23;20435;-77
2022/09/07 00:28:46;;;;;;;26.57;7.67;;;;;;;40.16;34.32;101154.81;6158524;23;20415;-75
2022/09/07 00:31:19;;;;;;;13.90;5.60;;;;;;;40.16;34.62;101154.81;6185012;23;20428;-75
2022/09/07 00:33:47;;;;;;;12.87;5.37;;;;;;;40.19;34.48;101156.91;6158643;23;20387;-75
2022/09/07 00:36:17;;;;;;;12.20;5.60;;;;;;;40.13;34.44;101152.72;6158682;23;20426;-74
2022/09/07 00:38:44;;;;;;;11.87;5.50;;;;;;;40.21;34.41;101138.38;6158585;23;20383;-74
2022/09/07 00:41:10;;;;;;;13.43;6.20;;;;;;;40.03;34.93;101142.13;6158567;23;20380;-74
2022/09/07 00:43:41;;;;;;;22.53;8.00;;;;;;;40.41;34.52;101147.06;6158595;23;20380;-74
2022/09/07 00:46:28;;;;;;;14.83;5.90;;;;;;;40.33;34.30;101131.50;6158348;23;20450;-76
2022/09/07 00:49:06;;;;;;;17.97;7.33;;;;;;;40.26;34.38;101129.25;6158375;23;20432;-77
2022/09/07 00:51:47;;;;;;;15.63;6.80;;;;;;;40.07;34.49;101121.38;6158501;23;20514;-75
2022/09/07 00:54:25;;;;;;;17.77;6.93;;;;;;;40.48;34.04;101122.94;6158377;23;20388;-75
2022/09/07 00:56:52;;;;;;;20.13;7.87;;;;;;;40.21;34.26;101124.78;6184930;23;20707;-75
2022/09/07 00:59:24;;;;;;;16.70;6.13;;;;;;;40.24;34.17;101117.91;6158281;23;20373;-75
2022/09/07 01:01:50;;;;;;;16.30;8.10;;;;;;;40.01;34.54;101117.97;6158333;23;20376;-75
2022/09/07 01:04:17;;;;;;;17.67;6.20;;;;;;;39.93;34.40;101115.22;6158411;23;20403;-75
2022/09/07 01:06:43;;;;;;;12.53;6.30;;;;;;;40.20;34.09;101114.22;6157731;23;20424;-76
2022/09/07 01:09:13;;;;;;;15.47;8.70;;;;;;;40.18;34.16;101103.66;6158486;23;20439;-77
2022/09/07 01:11:40;;;;;;;18.27;6.80;;;;;;;40.61;33.67;101113.84;6158236;23;20376;-75
2022/09/07 01:14:13;;;;;;;15.20;6.30;;;;;;;40.76;33.67;101109.84;6158319;23;20757;-76
2022/09/07 01:16:53;;;;;;;22.87;7.30;;;;;;;40.54;33.63;101113.53;6184636;23;20356;-76
2022/09/07 01:19:26;;;;;;;12.00;5.27;;;;;;;40.59;33.05;101105.22;6158114;23;20458;-76
2022/09/07 01:22:33;;;;;;;14.27;7.00;;;;;;;40.79;33.14;101101.84;6184639;23;20834;-76
2022/09/07 01:25:09;;;;;;;20.37;6.73;;;;;;;40.55;33.79;101109.69;6158005;23;20384;-75
2022/09/07 01:27:47;;;;;;;12.83;7.30;;;;;;;40.53;33.45;101112.72;6157866;23;20790;-75
2022/09/07 01:30:22;;;;;;;12.83;6.53;;;;;;;40.57;33.63;101106.63;6157900;23;20466;-76
2022/09/07 01:32:58;;;;;;;19.80;8.17;;;;;;;40.57;33.39;101106.63;6158332;23;20445;-76
2022/09/07 01:35:43;;;;;;;17.33;8.20;;;;;;;40.55;33.52;101104.25;6158428;23;20408;-75
2022/09/07 01:38:18;;;;;;;13.53;5.60;;;;;;;40.55;33.22;101099.59;6157918;23;21027;-74
2022/09/07 01:41:05;;;;;;;16.60;7.50;;;;;;;40.68;33.64;101097.03;6158086;23;20391;-77
2022/09/07 01:43:42;;;;;;;12.80;6.50;;;;;;;40.77;33.26;101095.13;6158079;23;20861;-76
2022/09/07 01:46:31;;;;;;;21.30;6.93;;;;;;;40.64;32.95;101098.78;6157921;23;20439;-76
2022/09/07 01:49:07;;;;;;;19.20;6.13;;;;;;;40.46;33.33;101087.09;6184405;23;20442;-74
2022/09/07 01:51:37;;;;;;;10.30;5.10;;;;;;;40.61;33.06;101080.41;6157911;23;20454;-75
2022/09/07 01:54:13;;;;;;;14.70;7.73;;;;;;;40.47;33.33;101088.69;6184392;23;20391;-76
2022/09/07 01:56:44;;;;;;;11.10;6.87;;;;;;;40.24;33.62;101086.09;6157963;23;20398;-77
2022/09/07 01:59:23;;;;;;;17.23;6.03;;;;;;;40.37;33.30;101095.22;6184342;23;20360;-76
2022/09/07 02:02:15;;;;;;;12.53;6.60;;;;;;;40.39;33.37;101100.34;6157823;23;20416;-76
2022/09/07 02:04:43;;;;;;;14.33;6.80;;;;;;;40.58;32.77;101090.03;6138196;23;20479;-75
2022/09/07 02:07:34;;;;;;;16.60;6.17;;;;;;;40.45;33.57;101094.44;6184186;23;20407;-75
2022/09/07 02:10:07;;;;;;;21.60;7.00;;;;;;;40.40;33.36;101094.59;6157801;23;20392;-75
2022/09/07 02:12:44;;;;;;;19.50;7.03;;;;;;;40.53;33.21;101104.56;6157487;23;20435;-75
2022/09/07 02:15:17;;;;;;;16.73;5.60;;;;;;;40.25;33.28;101104.00;6157709;23;20759;-76
2022/09/07 02:18:00;;;;;;;16.20;7.20;;;;;;;40.24;33.82;101107.03;6157638;23;20392;-76
2022/09/07 02:20:35;;;;;;;17.97;5.73;;;;;;;40.40;33.78;101097.34;6157597;23;20495;-76
2022/09/07 02:23:05;;;;;;;18.33;7.33;;;;;;;40.35;34.33;101099.41;6157699;23;20450;-76
2022/09/07 02:25:36;;;;;;;14.97;6.53;;;;;;;40.48;34.05;101099.28;6157626;23;20913;-76
2022/09/07 02:28:13;;;;;;;16.30;6.57;;;;;;;40.51;33.99;101098.63;6157538;23;20547;-76
2022/09/07 02:30:40;;;;;;;12.60;6.07;;;;;;;40.33;33.64;101093.47;6157402;23;20835;-76
2022/09/07 02:33:06;;;;;;;13.67;7.00;;;;;;;40.32;34.06;101089.94;6183963;23;20357;-76
2022/09/07 02:35:33;;;;;;;10.70;7.17;;;;;;;40.45;33.69;101096.34;6157601;23;20414;-76
2022/09/07 02:38:05;;;;;;;15.37;7.50;;;;;;;40.28;33.43;101100.66;6183957;23;20345;-76
2022/09/07 02:40:31;;;;;;;27.97;7.53;;;;;;;40.32;33.34;101110.88;6157240;23;20383;-75
2022/09/07 02:43:01;;;;;;;11.37;6.80;;;;;;;40.11;33.85;101108.78;6157633;23;20880;-75
2022/09/07 02:45:38;;;;;;;12.50;6.33;;;;;;;40.18;33.59;101106.38;6157254;23;20404;-75
2022/09/07 02:48:36;;;;;;;19.53;6.47;;;;;;;40.54;33.35;101108.09;6157400;23;20478;-75
2022/09/07 02:51:12;;;;;;;13.37;6.57;;;;;;;40.51;33.44;101111.44;6170759;23;20392;-75
2022/09/07 02:54:07;;;;;;;13.97;8.37;;;;;;;40.49;33.69;101117.19;6157410;23;20384;-76
2022/09/07 02:57:06;;;;;;;24.20;8.80;;;;;;;40.55;33.68;101121.34;6157195;23;20734;-76
2022/09/07 03:00:04;;;;;;;13.60;7.43;;;;;;;40.73;33.26;101122.16;6157290;23;20391;-76
2022/09/07 03:02:59;;;;;;;21.10;9.80;;;;;;;40.78;32.85;101129.38;6157410;23;20383;-77
2022/09/07 03:05:37;;;;;;;17.40;7.53;;;;;;;40.94;33.02;101127.78;6156693;23;20392;-76
2022/09/07 03:08:26;;;;;;;14.37;8.60;;;;;;;41.00;32.29;101129.22;6157363;23;20435;-76
2022/09/07 03:10:54;;;;;;;20.13;8.03;;;;;;;41.24;32.07;101125.19;6141885;23;20388;-76
2022/09/07 03:13:25;;;;;;;16.27;7.53;;;;;;;40.94;32.62;101127.00;6157299;23;20415;-77
2022/09/07 03:15:52;;;;;;;12.00;7.47;;;;;;;40.87;33.03;101132.09;6157350;23;20388;-77
2022/09/07 03:18:18;;;;;;;13.47;6.73;;;;;;;40.78;33.75;101130.19;6157451;23;20391;-76
2022/09/07 03:20:44;;;;;;;17.80;7.17;;;;;;;40.87;33.59;101126.66;6157784;23;20395;-76
2022/09/07 03:23:11;;;;;;;16.60;6.37;;;;;;;41.05;32.80;101128.25;6157417;23;20483;-76
2022/09/07 03:25:37;;;;;;;21.83;7.97;;;;;;;40.83;33.09;101125.69;6157310;23;20467;-76
2022/09/07 03:28:04;;;;;;;20.00;7.73;;;;;;;40.65;33.82;101128.41;6157278;23;20424;-76
2022/09/07 03:30:30;;;;;;;16.27;7.30;;;;;;;40.94;33.62;101124.25;6157215;23;20439;-76
2022/09/07 03:32:56;;;;;;;21.17;7.03;;;;;;;41.13;33.32;101127.47;6183723;23;20883;-76
2022/09/07 03:35:23;;;;;;;16.60;8.90;;;;;;;41.17;32.82;101135.78;6157233;23;20416;-77
2022/09/07 03:37:49;;;;;;;24.17;8.20;;;;;;;41.03;33.13;101136.75;6157294;23;20482;-76
2022/09/07 03:40:16;;;;;;;12.37;5.67;;;;;;;41.01;33.25;101130.84;6157164;23;20412;-76
2022/09/07 03:42:42;;;;;;;21.07;7.47;;;;;;;40.98;33.45;101136.13;6183824;23;20379;-76
2022/09/07 03:45:09;;;;;;;20.70;8.33;;;;;;;40.99;33.06;101146.66;6156668;23;20749;-75
2022/09/07 03:47:39;;;;;;;11.43;7.70;;;;;;;41.05;32.83;101136.44;6157158;23;20435;-75
2022/09/07 03:50:06;;;;;;;11.70;8.03;;;;;;;40.94;33.25;101148.75;6157215;23;20431;-74
2022/09/07 03:52:33;;;;;;;17.87;8.17;;;;;;;40.79;33.68;101147.28;6157974;23;20412;-76
2022/09/07 03:54:59;;;;;;;17.10;7.47;;;;;;;40.67;33.75;101145.19;6185566;23;20371;-76
2022/09/07 03:57:25;;;;;;;12.43;6.80;;;;;;;40.81;33.68;101143.13;6158987;23;20384;-76
2022/09/07 03:59:51;;;;;;;16.80;6.27;;;;;;;40.90;33.22;101137.72;6185310;23;20396;-75
2022/09/07 04:02:18;;;;;;;16.93;8.40;;;;;;;40.67;34.26;101139.75;6185409;23;20756;-75
2022/09/07 04:04:47;;;;;;;22.20;9.00;;;;;;;40.21;34.72;101137.59;6185400;23;20360;-74
2022/09/07 04:07:14;;;;;;;15.63;7.00;;;;;;;40.36;34.39;101149.91;6158886;23;20503;-76
2022/09/07 04:09:41;;;;;;;16.27;7.50;;;;;;;40.78;34.20;101153.84;6158885;23;20384;-75
2022/09/07 04:12:07;;;;;;;16.70;7.90;;;;;;;40.80;33.70;101157.06;6158645;23;20396;-75
2022/09/07 04:14:33;;;;;;;14.07;7.60;;;;;;;40.85;33.64;101158.81;6158889;23;20377;-75
2022/09/07 04:16:59;;;;;;;17.57;8.37;;;;;;;40.76;33.98;101167.78;6185174;23;20345;-76
2022/09/07 04:19:25;;;;;;;17.63;9.63;;;;;;;40.80;34.34;101171.44;6158611;23;20502;-74
2022/09/07 04:21:51;;;;;;;19.27;7.90;;;;;;;40.91;33.62;101171.16;6185197;23;20357;-74
2022/09/07 04:24:18;;;;;;;26.60;7.70;;;;;;;41.03;32.91;101174.06;6158761;23;20865;-74
2022/09/07 04:26:44;;;;;;;11.97;7.90;;;;;;;41.13;33.05;101170.19;6158656;23;20930;-75
2022/09/07 04:29:11;;;;;;;21.03;7.87;;;;;;;41.05;33.31;101169.88;6158639;23;20408;-76
2022/09/07 04:31:38;;;;;;;19.43;9.97;;;;;;;40.73;33.57;101181.22;6158492;23;20490;-76
2022/09/07 04:34:06;;;;;;;15.63;7.93;;;;;;;40.85;32.75;101181.38;6158673;23;20380;-76
2022/09/07 04:36:33;;;;;;;13.17;6.63;;;;;;;40.66;33.58;101178.97;6134126;23;20372;-76
2022/09/07 04:39:02;;;;;;;24.67;9.87;;;;;;;40.43;34.24;101193.75;6134150;23;20376;-76
2022/09/07 04:41:30;;;;;;;13.63;7.00;;;;;;;40.39;34.37;101188.16;6158592;23;20399;-76
2022/09/07 04:43:58;;;;;;;15.03;7.67;;;;;;;40.39;34.71;101187.34;6134435;23;20768;-76
2022/09/07 04:46:30;;;;;;;14.90;7.33;;;;;;;40.44;34.54;101189.91;6133577;23;20487;-76
2022/09/07 04:48:58;;;;;;;16.77;8.23;;;;;;;40.39;34.47;101195.50;6158437;23;20459;-75
2022/09/07 04:51:27;;;;;;;17.00;8.07;;;;;;;40.61;34.33;101183.75;6184857;23;20364;-76
2022/09/07 04:53:54;;;;;;;17.37;7.10;;;;;;;40.47;34.62;101178.41;6134389;23;20435;-76
2022/09/07 04:56:21;;;;;;;15.40;6.10;;;;;;;40.73;33.26;101187.44;6158450;23;20387;-75
2022/09/07 04:58:48;;;;;;;14.90;6.70;;;;;;;40.41;34.03;101185.13;6158458;23;20384;-75
2022/09/07 05:01:19;;;;;;;10.50;4.20;;;;;;;40.70;33.47;101190.00;6158782;23;20387;-75
2022/09/07 05:03:46;;;;;;;12.83;6.90;;;;;;;40.81;32.81;101189.38;6158091;23;20385;-76
2022/09/07 05:06:14;;;;;;;15.70;6.80;;;;;;;40.75;32.88;101192.56;6158225;23;20431;-76
2022/09/07 05:08:45;;;;;;;11.70;6.13;;;;;;;40.60;33.27;101199.25;6158293;23;20388;-75
2022/09/07 05:11:12;;;;;;;10.40;6.50;;;;;;;40.57;33.19;101194.44;6158296;23;20459;-74
2022/09/07 05:13:39;;;;;;;14.50;7.00;;;;;;;40.44;33.50;101201.59;6158263;23;20871;-76
2022/09/07 05:16:13;;;;;;;12.50;5.83;;;;;;;40.52;33.21;101203.56;6158308;23;20390;-76
2022/09/07 05:18:39;;;;;;;16.37;9.37;;;;;;;40.59;33.40;101200.38;6158382;23;20392;-76
2022/09/07 05:21:11;;;;;;;20.80;7.07;;;;;;;40.40;33.63;101206.06;6184580;23;20364;-75
2022/09/07 05:23:38;;;;;;;12.30;6.10;;;;;;;40.67;33.24;101206.97;6158221;23;20384;-74
2022/09/07 05:26:04;;;;;;;19.30;7.37;;;;;;;40.66;33.36;101203.44;6157861;23;20418;-74
2022/09/07 05:28:32;;;;;;;16.77;6.20;;;;;;;40.67;33.58;101193.34;6184633;23;20893;-76
2022/09/07 05:31:09;;;;;;;13.90;5.40;;;;;;;40.36;33.66;101207.81;6157730;23;20440;-76
2022/09/07 05:33:36;;;;;;;18.70;7.90;;;;;;;40.70;32.67;101204.41;6158046;23;20460;-76
2022/09/07 05:36:03;;;;;;;17.00;7.67;;;;;;;40.55;33.52;101204.84;6158139;23;20469;-76
2022/09/07 05:38:30;;;;;;;16.87;8.03;;;;;;;40.24;33.97;101204.88;6158106;23;20407;-75
2022/09/07 05:40:58;;;;;;;12.83;6.23;;;;;;;40.66;33.47;101210.78;6158050;23;20899;-76
2022/09/07 05:43:25;;;;;;;21.13;10.10;;;;;;;40.38;34.56;101219.16;6157957;23;20380;-74
2022/09/07 05:45:54;;;;;;;16.17;8.30;;;;;;;39.70;35.22;101228.53;6184404;23;20376;-76
2022/09/07 05:48:20;;;;;;;21.57;7.90;;;;;;;39.73;35.05;101234.16;6157898;23;20380;-76
2022/09/07 05:50:51;;;;;;;12.57;7.50;;;;;;;40.14;33.81;101230.41;6184164;23;20403;-75
2022/09/07 05:53:19;;;;;;;15.30;6.60;;;;;;;40.29;33.67;101237.38;6157940;23;20388;-74
2022/09/07 05:55:45;;;;;;;10.27;6.40;;;;;;;39.95;34.14;101238.75;6157877;23;20384;-76
2022/09/07 05:58:12;;;;;;;16.83;8.90;;;;;;;40.38;33.43;101237.38;6157902;23;20384;-76
2022/09/07 06:00:38;;;;;;;13.70;8.67;;;;;;;40.35;33.71;101246.19;6157413;23;20384;-76
2022/09/07 06:03:04;;;;;;;15.73;9.00;;;;;;;40.40;33.57;101241.41;6157700;23;20416;-76
2022/09/07 06:05:30;;;;;;;22.13;10.37;;;;;;;40.47;33.90;101243.66;6157868;23;20411;-75
2022/09/07 06:07:56;;;;;;;17.30;9.13;;;;;;;40.55;33.26;101257.31;6157624;23;20435;-75
2022/09/07 06:10:22;;;;;;;17.47;8.40;;;;;;;40.45;33.46;101256.75;6158007;23;20731;-73
2022/09/07 06:12:48;;;;;;;13.90;9.33;;;;;;;40.55;33.34;101261.94;6157649;23;20396;-73
2022/09/07 06:15:14;;;;;;;19.00;10.47;;;;;;;40.40;33.95;101268.59;6156904;23;20412;-73
2022/09/07 06:17:40;;;;;;;19.57;11.87;;;;;;;40.37;34.03;101271.13;6157721;23;20380;-74
2022/09/07 06:20:07;;;;;;;21.33;12.20;;;;;;;39.80;34.87;101274.47;6157567;23;20395;-73
2022/09/07 06:22:37;;;;;;;20.00;12.63;;;;;;;40.18;34.89;101279.50;6157541;23;20405;-73
2022/09/07 06:25:04;;;;;;;21.87;13.30;;;;;;;40.10;34.83;101277.56;6184130;23;20384;-74
2022/09/07 06:27:30;;;;;;;20.00;14.50;;;;;;;40.22;34.93;101285.94;6157464;23;20440;-74
2022/09/07 06:29:57;;;;;;;21.27;14.20;;;;;;;40.19;35.23;101290.06;6157395;23;20455;-75
2022/09/07 06:32:23;;;;;;;27.33;14.70;;;;;;;40.43;35.15;101286.97;6157423;23;20482;-73
2022/09/07 06:34:49;;;;;;;30.43;17.40;;;;;;;39.92;35.55;101299.16;6184223;23;20388;-73
2022/09/07 06:37:15;;;;;;;28.77;15.03;;;;;;;40.32;35.01;101304.69;6157254;23;20804;-75
2022/09/07 06:39:41;;;;;;;27.63;15.13;;;;;;;40.37;34.77;101306.47;6157706;23;20427;-75
2022/09/07 06:42:07;;;;;;;24.87;17.30;;;;;;;40.52;34.66;101304.19;6157321;23;20438;-75
2022/09/07 06:44:33;;;;;;;31.03;19.33;;;;;;;40.21;35.54;101317.75;6157562;23;20470;-73
2022/09/07 06:47:00;;;;;;;28.33;18.43;;;;;;;40.61;34.78;101315.06;6157320;23;20427;-73
2022/09/07 06:49:26;;;;;;;30.33;17.30;;;;;;;40.58;34.52;101329.31;6183694;23;20388;-73
2022/09/07 06:51:52;;;;;;;46.37;25.10;;;;;;;40.60;34.37;101321.63;6157608;23;20380;-75
2022/09/07 06:54:18;;;;;;;25.90;14.70;;;;;;;40.68;34.70;101326.31;6157684;23;20467;-74
2022/09/07 06:56:44;;;;;;;37.40;18.50;;;;;;;40.88;34.17;101337.72;6157391;23;20392;-75
2022/09/07 06:59:10;;;;;;;25.97;15.93;;;;;;;40.56;34.87;101334.25;6156902;23;20384;-73
2022/09/07 07:01:36;;;;;;;42.87;23.00;;;;;;;40.89;34.19;101331.97;6183584;23;20752;-73
2022/09/07 07:04:02;;;;;;;42.77;20.30;;;;;;;40.79;34.13;101349.38;6157147;23;20447;-74
2022/09/07 07:06:36;;;;;;;37.67;20.80;;;;;;;40.97;33.87;101347.56;6157008;23;20547;-74
2022/09/07 07:09:04;;;;;;;33.17;18.23;;;;;;;41.02;33.86;101352.84;6157189;23;20391;-74
2022/09/07 07:11:30;;;;;;;19.23;10.17;;;;;;;41.08;33.89;101340.72;6157249;23;20856;-73
2022/09/07 07:13:57;;;;;;;24.33;11.90;;;;;;;41.30;33.56;101353.38;6157112;23;20412;-74
2022/09/07 07:16:23;;;;;;;24.97;13.80;;;;;;;41.46;33.74;101366.56;6183822;23;20348;-74
2022/09/07 07:18:54;;;;;;;22.97;9.27;;;;;;;41.03;34.24;101369.97;6157154;23;20384;-74
2022/09/07 07:21:21;;;;;;;18.53;7.97;;;;;;;41.11;33.96;101362.94;6157421;23;20766;-74
2022/09/07 07:23:52;;;;;;;24.43;9.70;;;;;;;40.97;34.07;101369.31;6157285;23;20392;-75
2022/09/07 07:26:25;;;;;;;25.23;12.47;;;;;;;40.85;33.97;101374.53;6158018;23;20431;-74
2022/09/07 07:28:53;;;;;;;15.07;7.10;;;;;;;41.01;34.10;101374.94;6159332;23;20709;-74
2022/09/07 07:31:22;;;;;;;16.50;6.30;;;;;;;40.92;34.06;101374.09;6158970;23;20441;-74
2022/09/07 07:33:49;;;;;;;18.27;7.30;;;;;;;41.04;34.14;101385.19;6159366;23;20923;-74
2022/09/07 07:36:17;;;;;;;17.87;7.63;;;;;;;41.20;33.88;101382.84;6185646;23;20391;-80
2022/09/07 07:38:46;;;;;;;16.60;6.90;;;;;;;40.99;34.52;101385.31;6159083;23;20943;-80
2022/09/07 07:41:14;;;;;;;19.67;9.00;;;;;;;41.01;34.57;101396.72;6159002;23;20423;-79
2022/09/07 07:43:40;;;;;;;16.00;8.17;;;;;;;41.05;34.61;101400.38;6159307;23;20924;-80
2022/09/07 07:46:07;;;;;;;14.97;7.53;;;;;;;40.93;34.54;101392.81;6159049;23;20439;-79
2022/09/07 07:48:36;;;;;;;35.07;13.93;;;;;;;40.74;34.74;101394.97;6185962;23;20818;-78
2022/09/07 07:51:04;;;;;;;16.00;11.03;;;;;;;40.72;34.59;101417.03;6158227;23;20380;-78
2022/09/07 07:53:33;;;;;;;32.00;12.67;;;;;;;40.71;35.18;101414.66;6157049;23;20875;-79
2022/09/07 07:56:00;;;;;;;31.30;15.07;;;;;;;40.83;35.02;101414.06;6155646;23;20729;-79
2022/09/07 07:58:27;;;;;;;22.70;13.87;;;;;;;41.07;34.51;101425.41;6157642;23;20492;-79
2022/09/07 08:00:54;;;;;;;24.90;12.93;;;;;;;40.97;34.01;101426.47;6157454;23;20399;-78
2022/09/07 08:03:21;;;;;;;20.53;10.37;;;;;;;40.38;34.86;101435.84;6157132;23;20500;-78
2022/09/07 08:05:47;;;;;;;21.67;11.57;;;;;;;40.64;35.06;101428.69;6185303;23;20375;-76
2022/09/07 08:08:14;;;;;;;33.00;14.50;;;;;;;40.79;34.44;101424.75;6158995;23;20447;-80
2022/09/07 08:10:40;;;;;;;25.30;11.57;;;;;;;40.33;35.63;101430.53;6184813;23;20384;-74
2022/09/07 08:13:06;;;;;;;23.00;10.03;;;;;;;40.67;34.99;101438.94;6159242;23;20416;-75
2022/09/07 08:15:40;;;;;;;23.33;10.30;;;;;;;41.00;34.27;101435.91;6159742;23;20391;-75
2022/09/07 08:18:06;;;;;;;16.10;7.97;;;;;;;41.36;33.85;101435.72;6159383;23;20408;-71
2022/09/07 08:20:32;;;;;;;25.33;14.17;;;;;;;41.13;34.06;101435.03;6186335;23;20372;-75
2022/09/07 08:22:58;;;;;;;22.03;9.33;;;;;;;41.39;33.68;101435.13;6160184;23;20732;-73
2022/09/07 08:25:24;;;;;;;16.03;9.00;;;;;;;41.13;34.01;101440.47;6159603;23;20388;-73
2022/09/07 08:27:50;;;;;;;16.53;10.90;;;;;;;41.52;33.56;101444.28;6159229;23;20979;-74
2022/09/07 08:30:16;;;;;;;39.13;16.67;;;;;;;41.07;34.06;101434.34;6158772;23;20575;-74
2022/09/07 08:32:42;;;;;;;33.60;13.80;;;;;;;41.40;33.76;101438.63;6157876;23;20794;-74
2022/09/07 08:35:08;;;;;;;33.20;17.13;;;;;;;41.32;33.98;101442.94;6184053;23;20435;-74
2022/09/07 08:37:34;;;;;;;25.30;15.07;;;;;;;41.23;33.84;101444.81;6184650;23;20880;-74
2022/09/07 08:40:01;;;;;;;21.30;12.13;;;;;;;41.13;33.65;101437.75;6184980;23;20357;-74
2022/09/07 08:42:50;;;;;;;26.70;8.50;;;;;;;41.08;34.25;101444.13;6157476;23;20462;-73
2022/09/07 08:45:45;;;;;;;21.87;10.03;;;;;;;41.68;33.24;101439.97;6157560;23;20381;-75
2022/09/07 08:48:16;;;;;;;15.87;9.73;;;;;;;41.78;33.04;101439.69;6155029;23;20943;-74
2022/09/07 08:50:55;;;;;;;10.40;7.23;;;;;;;41.48;33.44;101448.75;6158805;23;20412;-76
2022/09/07 08:53:23;;;;;;;21.77;9.17;;;;;;;41.65;33.17;101453.44;6158915;23;20412;-77
2022/09/07 08:56:08;;;;;;;16.17;8.20;;;;;;;41.69;32.85;101460.66;6158526;23;20388;-79
2022/09/07 08:58:50;;;;;;;16.80;8.33;;;;;;;41.90;32.74;101457.31;6185068;23;20400;-79
2022/09/07 09:01:22;;;;;;;18.07;7.30;;;;;;;41.54;33.48;101455.63;6158220;23;20615;-81
2022/09/07 09:03:48;;;;;;;14.73;6.87;;;;;;;41.93;32.79;101448.50;6158810;23;20384;-79
2022/09/07 09:06:37;;;;;;;13.80;7.10;;;;;;;42.03;32.32;101445.47;6158676;23;20959;-73
2022/09/07 09:09:57;;;;;;;23.93;9.87;;;;;;;41.66;33.06;101442.19;6157999;23;20415;-79
2022/09/07 09:12:51;;;;;;;15.03;7.60;;;;;;;41.84;32.36;101449.31;6069957;23;20474;-79
2022/09/07 09:15:41;;;;;;;25.00;10.87;;;;;;;41.93;32.81;101441.16;6157794;23;20381;-77
2022/09/07 09:18:12;;;;;;;20.50;11.13;;;;;;;42.06;32.65;101439.38;6158121;23;20635;-78
2022/09/07 09:20:52;;;;;;;14.40;8.33;;;;;;;42.05;32.08;101433.13;6158495;23;20736;-81
2022/09/07 09:23:23;;;;;;;18.00;10.50;;;;;;;42.10;32.08;101423.97;6158370;23;20407;-77
2022/09/07 09:25:55;;;;;;;49.93;18.30;;;;;;;41.88;32.43;101421.44;6158518;23;20391;-77
2022/09/07 09:28:22;;;;;;;21.40;11.07;;;;;;;42.07;32.18;101430.06;6158484;23;20398;-77
2022/09/07 09:30:49;;;;;;;36.87;18.33;;;;;;;41.91;32.37;101431.66;6184668;23;20443;-78
2022/09/07 09:33:26;;;;;;;20.73;10.03;;;;;;;42.23;31.98;101435.84;6184477;23;20365;-77
2022/09/07 09:35:55;;;;;;;25.73;11.10;;;;;;;42.37;31.62;101429.09;6158232;23;20454;-78
2022/09/07 09:38:30;;;;;;;23.03;11.97;;;;;;;42.26;32.13;101433.28;6158358;23;20416;-77
2022/09/07 09:41:02;;;;;;;22.10;7.67;;;;;;;42.51;31.52;101430.84;6158500;23;20396;-78
2022/09/07 09:43:54;;;;;;;15.90;8.33;;;;;;;42.65;31.15;101434.19;6157605;23;20731;-77
2022/09/07 09:46:48;;;;;;;26.60;12.73;;;;;;;41.68;32.42;101441.88;6157541;23;20439;-78
2022/09/07 09:49:27;;;;;;;31.13;14.77;;;;;;;42.00;32.28;101427.03;6153193;23;20466;-80
2022/09/07 09:51:55;;;;;;;15.77;9.03;;;;;;;41.71;32.59;101428.44;6157975;23;20481;-79
2022/09/07 09:54:32;;;;;;;12.83;8.73;;;;;;;41.35;33.05;101436.84;6158223;23;20388;-78
2022/09/07 09:56:59;;;;;;;31.70;15.50;;;;;;;41.78;32.41;101430.72;6158041;23;20459;-80
2022/09/07 09:59:28;;;;;;;31.17;14.90;;;;;;;40.88;33.18;101428.31;6184457;23;20360;-80
2022/09/07 10:01:54;;;;;;;14.83;9.70;;;;;;;41.54;32.74;101428.41;6158185;23;20409;-80
2022/09/07 10:04:24;;;;;;;29.07;13.87;;;;;;;41.90;32.41;101428.16;6157980;23;20383;-81
2022/09/07 10:07:12;;;;;;;17.50;8.40;;;;;;;42.15;32.22;101421.06;6157872;23;20455;-80
2022/09/07 10:09:48;;;;;;;11.00;7.47;;;;;;;42.19;32.12;101424.00;6142531;23;20427;-81
2022/09/07 10:12:45;;;;;;;14.90;9.70;;;;;;;42.04;31.86;101422.53;6157917;23;20921;-82
2022/09/07 10:15:35;;;;;;;13.37;8.53;;;;;;;42.17;32.26;101416.13;6134404;23;20423;-81
2022/09/07 10:18:04;;;;;;;12.27;8.43;;;;;;;42.06;31.68;101406.66;6157190;23;20419;-81
2022/09/07 10:20:34;;;;;;;18.33;9.20;;;;;;;41.97;32.49;101408.59;6158323;23;20397;-82
2022/09/07 10:23:01;;;;;;;14.83;7.87;;;;;;;42.08;31.84;101413.38;6157823;23;20408;-80
2022/09/07 10:25:32;;;;;;;10.57;5.90;;;;;;;41.85;32.22;101412.75;6133413;23;20399;-80
2022/09/07 10:28:14;;;;;;;12.73;7.27;;;;;;;41.54;33.05;101412.06;6157857;23;20432;-80
2022/09/07 10:31:30;;;;;;;15.40;7.37;;;;;;;41.36;33.24;101408.50;6157900;23;20447;-81
2022/09/07 10:34:21;;;;;;;22.67;8.30;;;;;;;41.63;33.23;101414.81;6119069;23;20768;-80
2022/09/07 10:37:03;;;;;;;16.83;8.90;;;;;;;41.91;32.29;101409.88;6158035;23;20376;-79
2022/09/07 10:39:53;;;;;;;16.13;7.77;;;;;;;41.81;32.90;101416.47;6157774;23;20438;-81
2022/09/07 10:42:28;;;;;;;15.10;6.67;;;;;;;41.70;32.02;101415.13;6157375;23;20754;-80
2022/09/07 10:45:19;;;;;;;12.70;6.10;;;;;;;41.58;32.16;101405.66;6157945;23;20384;-81
2022/09/07 10:48:18;;;;;;;24.60;7.43;;;;;;;41.73;31.80;101409.84;6183894;23;20416;-80
2022/09/07 10:50:55;;;;;;;17.50;7.43;;;;;;;41.95;31.88;101405.41;6184089;23;20415;-80
2022/09/07 10:53:30;;;;;;;19.20;6.20;;;;;;;41.84;32.15;101404.91;6183706;23;20387;-80
2022/09/07 10:56:23;;;;;;;12.80;7.40;;;;;;;42.24;31.69;101402.81;6157579;23;20862;-80
2022/09/07 10:59:32;;;;;;;29.50;14.43;;;;;;;42.00;31.72;101399.78;6157934;23;20391;-80
2022/09/07 11:02:13;;;;;;;13.60;9.07;;;;;;;42.00;31.70;101391.59;6158525;23;20668;-83
2022/09/07 11:04:48;;;;;;;11.00;5.63;;;;;;;41.98;31.57;101383.72;6159936;23;20376;-81
2022/09/07 11:07:45;;;;;;;17.33;6.87;;;;;;;41.98;31.44;101399.28;6185934;23;20434;-79
2022/09/07 11:10:42;;;;;;;16.47;6.80;;;;;;;41.65;31.98;101385.31;6159323;23;20466;-78
2022/09/07 11:13:15;;;;;;;15.43;7.60;;;;;;;41.47;32.92;101376.34;6185946;23;20396;-78
2022/09/07 11:15:50;;;;;;;13.00;7.20;;;;;;;41.96;31.89;101369.63;6159788;23;20390;-77
2022/09/07 11:18:25;;;;;;;16.20;6.90;;;;;;;41.82;32.21;101363.56;6159764;23;20878;-79
2022/09/07 11:20:54;;;;;;;11.77;5.57;;;;;;;41.86;31.89;101365.31;6159506;23;20775;-77
2022/09/07 11:23:30;;;;;;;13.00;6.40;;;;;;;41.79;32.38;101361.47;6159663;23;20380;-76
2022/09/07 11:26:24;;;;;;;13.47;7.27;;;;;;;41.43;33.45;101351.66;6159573;23;20411;-78
2022/09/07 11:28:59;;;;;;;11.50;6.50;;;;;;;41.14;33.56;101354.97;6159399;23;20883;-76
2022/09/07 11:31:35;;;;;;;16.07;7.50;;;;;;;41.42;33.38;101343.81;6159260;23;20435;-75
2022/09/07 11:34:16;;;;;;;15.00;7.80;;;;;;;41.04;34.04;101344.38;6159437;23;20418;-75
2022/09/07 11:37:21;;;;;;;20.13;8.40;;;;;;;41.66;33.09;101341.41;6185161;23;20454;-75
2022/09/07 11:39:56;;;;;;;19.53;6.90;;;;;;;41.33;33.50;101341.09;6159336;23;20407;-74